sensor_id;sensor_type;location;lat;lon;timestamp;pressure;altitude;pressure_sealevel;temperature;humidity
54270;BME280;40181;51.560;13.000;2024-03-02T00:02:14;99664.09;;;8.61;100.00
54270;BME280;40181;51.560;13.000;2024-03-02T00:04:44;99661.31;;;8.42;100.00
54270;BME280;40181;51.560;13.000;2024-03-02T00:07:14;99652.69;;;8.51;100.00
54270;BME280;40181;51.560;13.000;2024-03-02T00:09:43;99646.59;;;8.56;100.00
54270;BME280;40181;51.560;13.000;2024-03-02T00:12:15;99645.75;;;8.59;100.00
54270;BME280;40181;51.560;13.000;2024-03-02T00:14:48;99653.63;;;8.61;100.00
54270;BME280;40181;51.560;13.000;2024-03-02T00:17:21;99645.78;;;8.61;100.00
54270;BME280;40181;51.560;13.000;2024-03-02T00:19:53;99646.66;;;8.63;100.00
54270;BME280;40181;51.560;13.000;2024-03-02T00:22:22;99638.78;;;8.61;100.00
54270;BME280;40181;51.560;13.000;2024-03-02T00:24:53;99642.31;;;8.66;100.00
54270;BME280;40181;51.560;13.000;2024-03-02T00:27:23;99639.66;;;8.57;100.00
54270;BME280;40181;51.560;13.000;2024-03-02T00:29:52;99636.84;;;8.40;100.00
54270;BME280;40181;51.560;13.000;2024-03-02T00:32:22;99643.78;;;8.33;100.00
54270;BME280;40181;51.560;13.000;2024-03-02T00:34:53;99629.94;;;8.45;100.00
54270;BME280;40181;51.560;13.000;2024-03-02T00:37:22;99626.38;;;8.40;100.00
54270;BME280;40181;51.560;13.000;2024-03-02T00:39:51;99637.63;;;8.28;100.00
54270;BME280;40181;51.560;13.000;2024-03-02T00:42:21;99625.47;;;8.33;100.00
54270;BME280;40181;51.560;13.000;2024-03-02T00:44:53;99623.53;;;8.07;100.00
54270;BME280;40181;51.560;13.000;2024-03-02T00:47:22;99629.78;;;8.26;100.00
54270;BME280;40181;51.560;13.000;2024-03-02T00:49:51;99632.47;;;8.36;100.00
54270;BME280;40181;51.560;13.000;2024-03-02T00:52:20;99621.91;;;8.25;100.00
54270;BME280;40181;51.560;13.000;2024-03-02T00:54:49;99625.22;;;8.03;100.00
54270;BME280;40181;51.560;13.000;2024-03-02T00:57:18;99624.59;;;8.31;100.00
54270;BME280;40181;51.560;13.000;2024-03-02T00:59:48;99625.28;;;8.10;100.00
54270;BME280;40181;51.560;13.000;2024-03-02T01:02:20;99631.56;;;8.29;100.00
54270;BME280;40181;51.560;13.000;2024-03-02T01:04:49;99626.31;;;8.30;100.00
54270;BME280;40181;51.560;13.000;2024-03-02T01:07:18;99626.28;;;8.24;100.00
54270;BME280;40181;51.560;13.000;2024-03-02T01:09:47;99624.50;;;8.23;100.00
54270;BME280;40181;51.560;13.000;2024-03-02T01:12:16;99630.66;;;8.25;100.00
54270;BME280;40181;51.560;13.000;2024-03-02T01:14:45;99628.75;;;8.10;100.00
54270;BME280;40181;51.560;13.000;2024-03-02T01:17:14;99625.25;;;8.05;100.00
54270;BME280;40181;51.560;13.000;2024-03-02T01:19:45;99628.75;;;8.04;100.00
54270;BME280;40181;51.560;13.000;2024-03-02T01:22:14;99630.56;;;8.14;100.00
54270;BME280;40181;51.560;13.000;2024-03-02T01:24:50;99635.03;;;8.26;100.00
54270;BME280;40181;51.560;13.000;2024-03-02T01:27:19;99630.72;;;8.36;100.00
54270;BME280;40181;51.560;13.000;2024-03-02T01:29:48;99629.88;;;8.36;100.00
54270;BME280;40181;51.560;13.000;2024-03-02T01:32:17;99627.28;;;8.40;100.00
54270;BME280;40181;51.560;13.000;2024-03-02T01:34:49;99626.41;;;8.41;100.00
54270;BME280;40181;51.560;13.000;2024-03-02T01:37:18;99625.53;;;8.39;100.00
54270;BME280;40181;51.560;13.000;2024-03-02T01:39:47;99625.47;;;8.36;100.00
54270;BME280;40181;51.560;13.000;2024-03-02T01:42:16;99620.28;;;8.39;100.00
54270;BME280;40181;51.560;13.000;2024-03-02T01:44:45;99626.34;;;8.35;100.00
54270;BME280;40181;51.560;13.000;2024-03-02T01:47:14;99621.09;;;8.29;100.00
54270;BME280;40181;51.560;13.000;2024-03-02T01:49:43;99628.94;;;8.30;100.00
54270;BME280;40181;51.560;13.000;2024-03-02T01:52:15;99631.53;;;8.24;100.00
54270;BME280;40181;51.560;13.000;2024-03-02T01:54:44;99621.94;;;8.28;100.00
54270;BME280;40181;51.560;13.000;2024-03-02T01:57:13;99625.44;;;8.31;100.00
54270;BME280;40181;51.560;13.000;2024-03-02T01:59:42;99628.09;;;8.36;100.00
54270;BME280;40181;51.560;13.000;2024-03-02T02:02:12;99617.59;;;8.28;100.00
54270;BME280;40181;51.560;13.000;2024-03-02T02:04:42;99619.38;;;8.36;100.00
54270;BME280;40181;51.560;13.000;2024-03-02T02:07:11;99627.25;;;8.39;100.00
54270;BME280;40181;51.560;13.000;2024-03-02T02:09:43;99621.16;;;8.38;100.00
54270;BME280;40181;51.560;13.000;2024-03-02T02:12:12;99618.53;;;8.38;100.00
54270;BME280;40181;51.560;13.000;2024-03-02T02:14:47;99620.09;;;8.14;100.00
54270;BME280;40181;51.560;13.000;2024-03-02T02:17:16;99614.78;;;8.03;100.00
54270;BME280;40181;51.560;13.000;2024-03-02T02:19:45;99621.66;;;7.95;100.00
54270;BME280;40181;51.560;13.000;2024-03-02T02:22:17;99614.00;;;8.15;100.00
54270;BME280;40181;51.560;13.000;2024-03-02T02:24:46;99612.19;;;8.05;100.00
54270;BME280;40181;51.560;13.000;2024-03-02T02:27:15;99612.28;;;8.16;100.00
54270;BME280;40181;51.560;13.000;2024-03-02T02:29:44;99607.78;;;7.99;100.00
54270;BME280;40181;51.560;13.000;2024-03-02T02:32:13;99610.34;;;7.95;100.00
54270;BME280;40181;51.560;13.000;2024-03-02T02:34:42;99607.03;;;8.14;100.00
54270;BME280;40181;51.560;13.000;2024-03-02T02:37:11;99613.84;;;7.97;100.00
54270;BME280;40181;51.560;13.000;2024-03-02T02:39:43;99615.75;;;8.16;100.00
54270;BME280;40181;51.560;13.000;2024-03-02T02:42:12;99613.19;;;8.23;100.00
54270;BME280;40181;51.560;13.000;2024-03-02T02:44:41;99607.13;;;8.25;100.00
54270;BME280;40181;51.560;13.000;2024-03-02T02:47:10;99614.75;;;7.97;100.00
54270;BME280;40181;51.560;13.000;2024-03-02T02:49:40;99613.94;;;8.09;100.00
54270;BME280;40181;51.560;13.000;2024-03-02T02:52:09;99618.28;;;8.04;100.00
54270;BME280;40181;51.560;13.000;2024-03-02T02:54:38;99598.31;;;8.19;100.00
54270;BME280;40181;51.560;13.000;2024-03-02T02:57:09;99604.44;;;8.22;100.00
54270;BME280;40181;51.560;13.000;2024-03-02T02:59:38;99594.03;;;8.25;100.00
54270;BME280;40181;51.560;13.000;2024-03-02T03:02:07;99600.13;;;8.27;100.00
54270;BME280;40181;51.560;13.000;2024-03-02T03:04:36;99595.75;;;8.22;100.00
54270;BME280;40181;51.560;13.000;2024-03-02T03:07:06;99599.16;;;8.14;100.00
54270;BME280;40181;51.560;13.000;2024-03-02T03:09:37;99609.56;;;8.05;100.00
54270;BME280;40181;51.560;13.000;2024-03-02T03:12:09;99611.25;;;7.98;100.00
54270;BME280;40181;51.560;13.000;2024-03-02T03:14:40;99604.25;;;7.93;100.00
54270;BME280;40181;51.560;13.000;2024-03-02T03:17:08;99616.56;;;8.11;100.00
54270;BME280;40181;51.560;13.000;2024-03-02T03:19:38;99611.38;;;8.15;100.00
54270;BME280;40181;51.560;13.000;2024-03-02T03:22:07;99623.19;;;7.70;100.00
54270;BME280;40181;51.560;13.000;2024-03-02T03:24:36;99625.78;;;7.67;100.00
54270;BME280;40181;51.560;13.000;2024-03-02T03:27:05;99623.28;;;7.82;100.00
54270;BME280;40181;51.560;13.000;2024-03-02T03:29:37;99629.06;;;7.48;100.00
54270;BME280;40181;51.560;13.000;2024-03-02T03:32:07;99632.84;;;7.77;100.00
54270;BME280;40181;51.560;13.000;2024-03-02T03:34:36;99633.56;;;7.62;100.00
54270;BME280;40181;51.560;13.000;2024-03-02T03:37:06;99626.25;;;7.31;100.00
54270;BME280;40181;51.560;13.000;2024-03-02T03:39:35;99635.00;;;7.37;100.00
54270;BME280;40181;51.560;13.000;2024-03-02T03:42:01;99639.66;;;7.61;100.00
54270;BME280;40181;51.560;13.000;2024-03-02T03:44:33;99632.75;;;7.68;100.00
54270;BME280;40181;51.560;13.000;2024-03-02T03:47:02;99618.03;;;7.79;100.00
54270;BME280;40181;51.560;13.000;2024-03-02T03:49:31;99635.09;;;7.43;100.00
54270;BME280;40181;51.560;13.000;2024-03-02T03:52:00;99635.13;;;7.44;100.00
54270;BME280;40181;51.560;13.000;2024-03-02T03:54:29;99633.75;;;7.82;100.00
54270;BME280;40181;51.560;13.000;2024-03-02T03:56:59;99637.19;;;7.75;100.00
54270;BME280;40181;51.560;13.000;2024-03-02T03:59:28;99646.66;;;7.65;100.00
54270;BME280;40181;51.560;13.000;2024-03-02T04:01:59;99648.09;;;7.37;100.00
54270;BME280;40181;51.560;13.000;2024-03-02T04:04:28;99636.03;;;7.50;100.00
54270;BME280;40181;51.560;13.000;2024-03-02T04:06:58;99647.13;;;7.27;100.00
54270;BME280;40181;51.560;13.000;2024-03-02T04:09:28;99654.44;;;7.57;100.00
54270;BME280;40181;51.560;13.000;2024-03-02T04:11:57;99645.81;;;7.68;100.00
54270;BME280;40181;51.560;13.000;2024-03-02T04:14:26;99663.28;;;7.70;100.00
54270;BME280;40181;51.560;13.000;2024-03-02T04:16:55;99657.28;;;7.81;100.00
54270;BME280;40181;51.560;13.000;2024-03-02T04:19:26;99658.97;;;7.79;100.00
54270;BME280;40181;51.560;13.000;2024-03-02T04:21:55;99654.66;;;7.79;100.00
54270;BME280;40181;51.560;13.000;2024-03-02T04:24:24;99652.00;;;7.78;100.00
54270;BME280;40181;51.560;13.000;2024-03-02T04:26:53;99650.50;;;8.01;100.00
54270;BME280;40181;51.560;13.000;2024-03-02T04:29:23;99646.97;;;7.95;100.00
54270;BME280;40181;51.560;13.000;2024-03-02T04:31:52;99645.91;;;7.79;100.00
54270;BME280;40181;51.560;13.000;2024-03-02T04:34:21;99654.31;;;7.50;100.00
54270;BME280;40181;51.560;13.000;2024-03-02T04:36:52;99657.63;;;7.31;100.00
54270;BME280;40181;51.560;13.000;2024-03-02T04:39:21;99662.31;;;7.64;100.00
54270;BME280;40181;51.560;13.000;2024-03-02T04:41:50;99650.13;;;7.61;100.00
54270;BME280;40181;51.560;13.000;2024-03-02T04:44:19;99662.28;;;7.59;100.00
54270;BME280;40181;51.560;13.000;2024-03-02T04:46:48;99655.13;;;7.44;100.00
54270;BME280;40181;51.560;13.000;2024-03-02T04:49:17;99656.78;;;7.36;100.00
54270;BME280;40181;51.560;13.000;2024-03-02T04:51:46;99654.22;;;7.40;100.00
54270;BME280;40181;51.560;13.000;2024-03-02T04:54:18;99666.59;;;7.55;100.00
54270;BME280;40181;51.560;13.000;2024-03-02T04:56:47;99650.97;;;7.61;100.00
54270;BME280;40181;51.560;13.000;2024-03-02T04:59:17;99667.72;;;7.79;100.00
54270;BME280;40181;51.560;13.000;2024-03-02T05:01:46;99663.84;;;7.43;100.00
54270;BME280;40181;51.560;13.000;2024-03-02T05:04:15;99671.88;;;7.58;100.00
54270;BME280;40181;51.560;13.000;2024-03-02T05:06:44;99672.94;;;7.79;100.00
54270;BME280;40181;51.560;13.000;2024-03-02T05:09:20;99664.31;;;7.86;100.00
54270;BME280;40181;51.560;13.000;2024-03-02T05:11:49;99670.25;;;7.70;100.00
54270;BME280;40181;51.560;13.000;2024-03-02T05:14:30;99676.31;;;7.67;100.00
54270;BME280;40181;51.560;13.000;2024-03-02T05:16:59;99672.81;;;7.65;100.00
54270;BME280;40181;51.560;13.000;2024-03-02T05:19:28;99688.16;;;7.37;100.00
54270;BME280;40181;51.560;13.000;2024-03-02T05:21:57;99706.50;;;7.39;100.00
54270;BME280;40181;51.560;13.000;2024-03-02T05:24:29;99699.47;;;7.38;100.00
54270;BME280;40181;51.560;13.000;2024-03-02T05:26:58;99694.25;;;7.36;100.00
54270;BME280;40181;51.560;13.000;2024-03-02T05:29:27;99696.16;;;7.51;100.00
54270;BME280;40181;51.560;13.000;2024-03-02T05:31:57;99691.69;;;7.42;100.00
54270;BME280;40181;51.560;13.000;2024-03-02T05:34:26;99690.28;;;7.68;100.00
54270;BME280;40181;51.560;13.000;2024-03-02T05:36:56;99693.00;;;7.80;100.00
54270;BME280;40181;51.560;13.000;2024-03-02T05:39:25;99693.09;;;7.89;100.00
54270;BME280;40181;51.560;13.000;2024-03-02T05:41:57;99689.69;;;7.97;100.00
54270;BME280;40181;51.560;13.000;2024-03-02T05:44:26;99693.97;;;7.88;100.00
54270;BME280;40181;51.560;13.000;2024-03-02T05:46:55;99697.84;;;7.46;100.00
54270;BME280;40181;51.560;13.000;2024-03-02T05:49:24;99697.00;;;7.48;100.00
54270;BME280;40181;51.560;13.000;2024-03-02T05:51:53;99697.50;;;7.92;100.00
54270;BME280;40181;51.560;13.000;2024-03-02T05:54:22;99700.03;;;7.86;100.00
54270;BME280;40181;51.560;13.000;2024-03-02T05:56:54;99704.19;;;7.65;100.00
54270;BME280;40181;51.560;13.000;2024-03-02T05:59:41;99699.16;;;7.84;100.00
54270;BME280;40181;51.560;13.000;2024-03-02T06:02:10;99706.13;;;7.83;100.00
54270;BME280;40181;51.560;13.000;2024-03-02T06:04:39;99697.13;;;7.56;100.00
54270;BME280;40181;51.560;13.000;2024-03-02T06:07:08;99702.28;;;7.53;100.00
54270;BME280;40181;51.560;13.000;2024-03-02T06:09:37;99704.97;;;7.58;100.00
54270;BME280;40181;51.560;13.000;2024-03-02T06:12:09;99710.03;;;7.44;100.00
54270;BME280;40181;51.560;13.000;2024-03-02T06:14:38;99716.97;;;7.42;100.00
54270;BME280;40181;51.560;13.000;2024-03-02T06:17:07;99706.88;;;7.71;100.00
54270;BME280;40181;51.560;13.000;2024-03-02T06:19:36;99709.28;;;7.53;100.00
54270;BME280;40181;51.560;13.000;2024-03-02T06:22:05;99711.69;;;7.37;100.00
54270;BME280;40181;51.560;13.000;2024-03-02T06:24:35;99706.88;;;7.71;100.00
54270;BME280;40181;51.560;13.000;2024-03-02T06:27:05;99715.53;;;7.66;100.00
54270;BME280;40181;51.560;13.000;2024-03-02T06:29:36;99719.66;;;7.50;100.00
54270;BME280;40181;51.560;13.000;2024-03-02T06:32:06;99723.47;;;7.75;100.00
54270;BME280;40181;51.560;13.000;2024-03-02T06:34:35;99726.22;;;7.87;100.00
54270;BME280;40181;51.560;13.000;2024-03-02T06:37:04;99726.16;;;7.83;100.00
54270;BME280;40181;51.560;13.000;2024-03-02T06:39:33;99728.69;;;7.75;100.00
54270;BME280;40181;51.560;13.000;2024-03-02T06:42:03;99731.41;;;7.83;100.00
54270;BME280;40181;51.560;13.000;2024-03-02T06:44:35;99735.72;;;7.81;100.00
54270;BME280;40181;51.560;13.000;2024-03-02T06:47:04;99744.53;;;7.91;100.00
54270;BME280;40181;51.560;13.000;2024-03-02T06:49:33;99741.75;;;7.73;100.00
54270;BME280;40181;51.560;13.000;2024-03-02T06:52:03;99736.69;;;7.87;100.00
54270;BME280;40181;51.560;13.000;2024-03-02T06:54:32;99741.09;;;7.93;100.00
54270;BME280;40181;51.560;13.000;2024-03-02T06:57:01;99749.63;;;7.75;100.00
54270;BME280;40181;51.560;13.000;2024-03-02T06:59:31;99753.19;;;7.83;100.00
54270;BME280;40181;51.560;13.000;2024-03-02T07:02:03;99747.22;;;7.95;100.00
54270;BME280;40181;51.560;13.000;2024-03-02T07:04:33;99744.66;;;8.01;100.00
54270;BME280;40181;51.560;13.000;2024-03-02T07:07:02;99755.97;;;7.99;100.00
54270;BME280;40181;51.560;13.000;2024-03-02T07:09:31;99756.75;;;7.90;100.00
54270;BME280;40181;51.560;13.000;2024-03-02T07:12:00;99758.47;;;7.89;100.00
54270;BME280;40181;51.560;13.000;2024-03-02T07:14:30;99761.38;;;8.14;100.00
54270;BME280;40181;51.560;13.000;2024-03-02T07:17:13;99759.78;;;8.29;100.00
54270;BME280;40181;51.560;13.000;2024-03-02T07:19:42;99766.78;;;8.33;100.00
54270;BME280;40181;51.560;13.000;2024-03-02T07:22:11;99769.50;;;8.45;100.00
54270;BME280;40181;51.560;13.000;2024-03-02T07:24:41;99766.94;;;8.50;100.00
54270;BME280;40181;51.560;13.000;2024-03-02T07:27:11;99767.63;;;8.27;100.00
54270;BME280;40181;51.560;13.000;2024-03-02T07:29:41;99765.09;;;8.40;100.00
54270;BME280;40181;51.560;13.000;2024-03-02T07:32:10;99766.94;;;8.49;100.00
54270;BME280;40181;51.560;13.000;2024-03-02T07:34:42;99771.31;;;8.50;100.00
54270;BME280;40181;51.560;13.000;2024-03-02T07:37:11;99759.53;;;8.07;100.00
54270;BME280;40181;51.560;13.000;2024-03-02T07:39:40;99757.88;;;8.12;100.00
54270;BME280;40181;51.560;13.000;2024-03-02T07:42:09;99769.16;;;8.10;100.00
54270;BME280;40181;51.560;13.000;2024-03-02T07:44:38;99764.19;;;8.35;100.00
54270;BME280;40181;51.560;13.000;2024-03-02T07:47:07;99779.91;;;8.35;100.00
54270;BME280;40181;51.560;13.000;2024-03-02T07:49:39;99778.34;;;8.52;100.00
54270;BME280;40181;51.560;13.000;2024-03-02T07:52:08;99791.53;;;8.63;100.00
54270;BME280;40181;51.560;13.000;2024-03-02T07:54:37;99788.16;;;8.74;100.00
54270;BME280;40181;51.560;13.000;2024-03-02T07:57:06;99804.69;;;8.69;100.00
54270;BME280;40181;51.560;13.000;2024-03-02T07:59:36;99804.69;;;8.72;100.00
54270;BME280;40181;51.560;13.000;2024-03-02T08:02:06;99790.00;;;8.90;100.00
54270;BME280;40181;51.560;13.000;2024-03-02T08:04:35;99793.50;;;8.89;100.00
54270;BME280;40181;51.560;13.000;2024-03-02T08:07:07;99799.59;;;8.88;100.00
54270;BME280;40181;51.560;13.000;2024-03-02T08:09:36;99791.75;;;8.91;100.00
54270;BME280;40181;51.560;13.000;2024-03-02T08:12:06;99793.59;;;9.03;100.00
54270;BME280;40181;51.560;13.000;2024-03-02T08:14:35;99795.31;;;8.98;100.00
54270;BME280;40181;51.560;13.000;2024-03-02T08:17:04;99800.59;;;9.03;100.00
54270;BME280;40181;51.560;13.000;2024-03-02T08:19:35;99799.63;;;8.90;99.71
54270;BME280;40181;51.560;13.000;2024-03-02T08:22:07;99804.09;;;9.08;99.02
54270;BME280;40181;51.560;13.000;2024-03-02T08:24:36;99794.56;;;9.15;99.14
54270;BME280;40181;51.560;13.000;2024-03-02T08:27:05;99803.31;;;9.20;99.54
54270;BME280;40181;51.560;13.000;2024-03-02T08:29:34;99801.56;;;9.16;100.00
54270;BME280;40181;51.560;13.000;2024-03-02T08:32:05;99800.69;;;9.20;100.00
54270;BME280;40181;51.560;13.000;2024-03-02T08:34:34;99798.94;;;9.19;100.00
54270;BME280;40181;51.560;13.000;2024-03-02T08:37:06;99817.22;;;9.09;100.00
54270;BME280;40181;51.560;13.000;2024-03-02T08:39:35;99817.31;;;9.20;100.00
54270;BME280;40181;51.560;13.000;2024-03-02T08:42:05;99810.41;;;9.32;100.00
54270;BME280;40181;51.560;13.000;2024-03-02T08:44:34;99817.31;;;9.20;100.00
54270;BME280;40181;51.560;13.000;2024-03-02T08:47:03;99812.94;;;9.21;99.61
54270;BME280;40181;51.560;13.000;2024-03-02T08:49:32;99803.38;;;9.29;99.46
54270;BME280;40181;51.560;13.000;2024-03-02T08:52:01;99815.66;;;9.36;99.21
54270;BME280;40181;51.560;13.000;2024-03-02T08:54:33;99821.84;;;9.46;98.78
54270;BME280;40181;51.560;13.000;2024-03-02T08:57:03;99817.44;;;9.39;98.93
54270;BME280;40181;51.560;13.000;2024-03-02T08:59:33;99822.66;;;9.34;99.77
54270;BME280;40181;51.560;13.000;2024-03-02T09:02:02;99828.66;;;9.19;98.88
54270;BME280;40181;51.560;13.000;2024-03-02T09:04:31;99828.72;;;9.30;98.06
54270;BME280;40181;51.560;13.000;2024-03-02T09:07:00;99827.91;;;9.40;98.21
54270;BME280;40181;51.560;13.000;2024-03-02T09:09:29;99839.28;;;9.41;98.08
54270;BME280;40181;51.560;13.000;2024-03-02T09:12:01;99842.69;;;9.23;98.09
54270;BME280;40181;51.560;13.000;2024-03-02T09:14:30;99836.63;;;9.33;97.60
54270;BME280;40181;51.560;13.000;2024-03-02T09:16:59;99837.47;;;9.29;98.09
54270;BME280;40181;51.560;13.000;2024-03-02T09:19:29;99845.41;;;9.40;98.28
54270;BME280;40181;51.560;13.000;2024-03-02T09:21:58;99847.22;;;9.52;98.06
54270;BME280;40181;51.560;13.000;2024-03-02T09:24:28;99840.28;;;9.63;98.21
54270;BME280;40181;51.560;13.000;2024-03-02T09:27:01;99842.94;;;9.71;100.00
54270;BME280;40181;51.560;13.000;2024-03-02T09:29:31;99849.06;;;9.67;100.00
54270;BME280;40181;51.560;13.000;2024-03-02T09:32:00;99838.53;;;9.61;100.00
54270;BME280;40181;51.560;13.000;2024-03-02T09:34:29;99855.22;;;9.75;100.00
54270;BME280;40181;51.560;13.000;2024-03-02T09:36:58;99847.41;;;9.81;100.00
54270;BME280;40181;51.560;13.000;2024-03-02T09:39:29;99846.56;;;9.87;100.00
54270;BME280;40181;51.560;13.000;2024-03-02T09:42:01;99864.03;;;9.87;100.00
54270;BME280;40181;51.560;13.000;2024-03-02T09:44:31;99846.63;;;10.01;100.00
54270;BME280;40181;51.560;13.000;2024-03-02T09:47:01;99856.28;;;10.08;100.00
54270;BME280;40181;51.560;13.000;2024-03-02T09:49:31;99855.34;;;10.02;100.00
54270;BME280;40181;51.560;13.000;2024-03-02T09:52:00;99851.91;;;10.17;99.77
54270;BME280;40181;51.560;13.000;2024-03-02T09:54:30;99847.53;;;10.17;98.29
54270;BME280;40181;51.560;13.000;2024-03-02T09:57:02;99847.56;;;10.23;96.25
54270;BME280;40181;51.560;13.000;2024-03-02T09:59:31;99828.38;;;10.40;95.37
54270;BME280;40181;51.560;13.000;2024-03-02T10:02:01;99831.00;;;10.40;93.93
54270;BME280;40181;51.560;13.000;2024-03-02T10:04:33;99838.91;;;10.48;93.13
54270;BME280;40181;51.560;13.000;2024-03-02T10:07:13;99838.03;;;10.46;92.33
54270;BME280;40181;51.560;13.000;2024-03-02T10:09:43;99835.44;;;10.64;92.35
54270;BME280;40181;51.560;13.000;2024-03-02T10:12:16;99834.59;;;10.72;93.58
54270;BME280;40181;51.560;13.000;2024-03-02T10:14:47;99832.84;;;10.83;91.97
54270;BME280;40181;51.560;13.000;2024-03-02T10:17:18;99832.78;;;10.46;89.76
54270;BME280;40181;51.560;13.000;2024-03-02T10:19:47;99831.94;;;10.64;89.24
54270;BME280;40181;51.560;13.000;2024-03-02T10:22:16;99840.69;;;10.80;89.46
54270;BME280;40181;51.560;13.000;2024-03-02T10:24:45;99831.94;;;10.97;89.79
54270;BME280;40181;51.560;13.000;2024-03-02T10:27:19;99836.31;;;11.07;88.83
54270;BME280;40181;51.560;13.000;2024-03-02T10:29:51;99831.94;;;11.25;87.69
54270;BME280;40181;51.560;13.000;2024-03-02T10:32:22;99836.31;;;11.02;86.28
54270;BME280;40181;51.560;13.000;2024-03-02T10:34:51;99824.94;;;11.20;87.26
54270;BME280;40181;51.560;13.000;2024-03-02T10:37:21;99828.41;;;11.49;87.90
54270;BME280;40181;51.560;13.000;2024-03-02T10:39:52;99827.50;;;11.53;86.41
54270;BME280;40181;51.560;13.000;2024-03-02T10:42:23;99828.47;;;11.10;85.94
54270;BME280;40181;51.560;13.000;2024-03-02T10:44:53;99827.56;;;11.36;86.01
54270;BME280;40181;51.560;13.000;2024-03-02T10:47:23;99830.16;;;11.45;84.84
54270;BME280;40181;51.560;13.000;2024-03-02T10:49:54;99819.66;;;11.45;85.20
54270;BME280;40181;51.560;13.000;2024-03-02T10:52:25;99818.78;;;11.26;83.88
54270;BME280;40181;51.560;13.000;2024-03-02T10:54:54;99818.75;;;11.39;83.52
54270;BME280;40181;51.560;13.000;2024-03-02T10:57:27;99813.47;;;11.54;84.57
54270;BME280;40181;51.560;13.000;2024-03-02T11:00:03;99814.38;;;11.42;82.99
54270;BME280;40181;51.560;13.000;2024-03-02T11:02:37;99808.19;;;11.68;82.81
54270;BME280;40181;51.560;13.000;2024-03-02T11:05:09;99810.72;;;11.87;84.69
54270;BME280;40181;51.560;13.000;2024-03-02T11:07:40;99813.38;;;11.87;81.58
54270;BME280;40181;51.560;13.000;2024-03-02T11:10:09;99802.81;;;11.93;80.37
54270;BME280;40181;51.560;13.000;2024-03-02T11:12:48;99812.50;;;11.89;80.15
54270;BME280;40181;51.560;13.000;2024-03-02T11:15:21;99809.81;;;11.97;79.80
54270;BME280;40181;51.560;13.000;2024-03-02T11:17:54;99804.66;;;11.72;79.55
54270;BME280;40181;51.560;13.000;2024-03-02T11:20:24;99810.69;;;12.09;80.05
54270;BME280;40181;51.560;13.000;2024-03-02T11:22:53;99819.47;;;12.08;78.87
54270;BME280;40181;51.560;13.000;2024-03-02T11:25:23;99812.44;;;12.11;78.61
54270;BME280;40181;51.560;13.000;2024-03-02T11:28:02;99807.91;;;12.37;77.96
54270;BME280;40181;51.560;13.000;2024-03-02T11:30:50;99811.25;;;12.64;79.11
54270;BME280;40181;51.560;13.000;2024-03-02T11:33:24;99809.53;;;12.56;78.66
54270;BME280;40181;51.560;13.000;2024-03-02T11:35:52;99813.03;;;12.62;77.86
54270;BME280;40181;51.560;13.000;2024-03-02T11:38:22;99801.59;;;12.61;76.52
54270;BME280;40181;51.560;13.000;2024-03-02T11:40:51;99804.31;;;12.49;76.22
54270;BME280;40181;51.560;13.000;2024-03-02T11:43:25;99807.75;;;12.60;76.27
54270;BME280;40181;51.560;13.000;2024-03-02T11:45:59;99805.16;;;12.57;76.85
54270;BME280;40181;51.560;13.000;2024-03-02T11:48:29;99815.69;;;12.55;76.53
54270;BME280;40181;51.560;13.000;2024-03-02T11:50:59;99800.72;;;12.61;77.94
54270;BME280;40181;51.560;13.000;2024-03-02T11:53:30;99793.84;;;12.38;80.67
54270;BME280;40181;51.560;13.000;2024-03-02T11:56:01;99801.72;;;12.44;82.48
54270;BME280;40181;51.560;13.000;2024-03-02T11:58:35;99807.78;;;12.55;81.84
54270;BME280;40181;51.560;13.000;2024-03-02T12:01:06;99813.16;;;12.40;82.02
54270;BME280;40181;51.560;13.000;2024-03-02T12:03:35;99799.84;;;12.58;81.68
54270;BME280;40181;51.560;13.000;2024-03-02T12:06:05;99799.03;;;12.50;79.36
54270;BME280;40181;51.560;13.000;2024-03-02T12:08:34;99790.19;;;12.61;78.82
54270;BME280;40181;51.560;13.000;2024-03-02T12:11:05;99793.63;;;12.72;77.74
54270;BME280;40181;51.560;13.000;2024-03-02T12:13:37;99796.34;;;12.58;77.39
54270;BME280;40181;51.560;13.000;2024-03-02T12:16:06;99785.81;;;12.58;76.90
54270;BME280;40181;51.560;13.000;2024-03-02T12:18:35;99774.28;;;12.71;76.70
54270;BME280;40181;51.560;13.000;2024-03-02T12:21:06;99779.59;;;12.70;78.19
54270;BME280;40181;51.560;13.000;2024-03-02T12:23:35;99780.31;;;12.88;78.31
54270;BME280;40181;51.560;13.000;2024-03-02T12:26:04;99770.72;;;12.80;78.51
54270;BME280;40181;51.560;13.000;2024-03-02T12:28:33;99776.75;;;12.92;79.17
54270;BME280;40181;51.560;13.000;2024-03-02T12:31:05;99782.03;;;12.90;78.44
54270;BME280;40181;51.560;13.000;2024-03-02T12:33:34;99775.88;;;12.91;78.24
54270;BME280;40181;51.560;13.000;2024-03-02T12:36:04;99770.50;;;13.04;78.04
54270;BME280;40181;51.560;13.000;2024-03-02T12:38:34;99780.47;;;12.64;77.81
54270;BME280;40181;51.560;13.000;2024-03-02T12:41:03;99779.44;;;12.85;77.67
54270;BME280;40181;51.560;13.000;2024-03-02T12:43:33;99771.47;;;12.93;77.98
54270;BME280;40181;51.560;13.000;2024-03-02T12:46:05;99764.25;;;13.16;77.63
54270;BME280;40181;51.560;13.000;2024-03-02T12:48:34;99766.88;;;13.16;77.61
54270;BME280;40181;51.560;13.000;2024-03-02T12:51:06;99767.06;;;12.95;78.23
54270;BME280;40181;51.560;13.000;2024-03-02T12:53:35;99759.25;;;12.84;78.04
54270;BME280;40181;51.560;13.000;2024-03-02T12:56:05;99766.13;;;13.03;77.94
54270;BME280;40181;51.560;13.000;2024-03-02T12:58:41;99747.44;;;13.23;79.15
54270;BME280;40181;51.560;13.000;2024-03-02T13:01:10;99747.28;;;13.40;76.62
54270;BME280;40181;51.560;13.000;2024-03-02T13:03:44;99760.72;;;13.13;76.28
54270;BME280;40181;51.560;13.000;2024-03-02T13:06:13;99753.50;;;13.33;75.36